Aérodrome :
LOGIN :

S'inscrire | Disclaimer

   EN    FR    IT 

 










Légende :    VFR   VFR Marginal   IFR   IFR Intensif   IFR Très Intensif
Visi : 
Plafond : 
>= 8 km
>= 3000ft
5 à 8 km
1000 à 3000 ft
1500m à 5 km
500 à 1000 ft
800 à 1500m
200 à 500 ft
< 800m
< 200 ft
Symboles :   Orages  Brouillard  Fortes neiges  Fortes précipitations  Vent > 20 kt
SIGMETs :   Divers  Orages  Givrage  Turbulence  Onde Orograph.  Cendres Volcan.







- Altitude de l'aérodrome : 1106 ft
- Voir les cartes d'approche


LFSO - Nancy / Ochey

DERNIER METAR :
  • 241530Z AUTO 05009KT 020V090 9999 FEW021 10/06 Q1023

METARs EXPIRÉS :
  • 241500Z AUTO 05008KT 010V080 9999 BKN019 10/06 Q1023
  • 241430Z AUTO 05010KT 360V090 9999 BKN019 10/06 Q1023
  • 241400Z AUTO 06009KT 030V090 9999 OVC018 10/06 Q1023
  • 241330Z AUTO 04011KT 9999 OVC017 10/06 Q1023 NOSIG
  • 241300Z AUTO 05012KT 9999 OVC017 10/06 Q1023 NOSIG

TAF TAF LFSO
Valide du 24 à 15h jusqu'au 25 à 15h UTC


241400Z 2415/2515 06010KT 9999 BKN017
FM241700 04010G25KT CAVOK
PROB40
TEMPO 2510/2515 06020G30KT
Pas de NOTAMs connus pour ce terrain.



MET'MAP, la Météo Aéronautique d'un coup d'oeil ! - Copyright ORBIFLY Décembre 2007 - Disclaimer

ORBIFLY MET'MAP TEAM :

Programmation & Développement : Alexandra Zaïnal
Conception & Développement : Baudouin d'Aumeries
Co-Programmation & Développement : Marc-Olivier Méhu
Soutien technique & logistique : Manuel Goepfert

Contact : metmap@orbifly.com




SOURCES & CREDITS :

   NOAA